sensor_id;sensor_type;location;lat;lon;timestamp;P1;durP1;ratioP1;P2;durP2;ratioP2
46308;SDS011;32037;50.820;6.494;2023-06-01T00:00:03;4.50;;;2.47;;
46308;SDS011;32037;50.820;6.494;2023-06-01T00:02:39;3.10;;;2.80;;
46308;SDS011;32037;50.820;6.494;2023-06-01T00:05:08;2.80;;;2.50;;
46308;SDS011;32037;50.820;6.494;2023-06-01T00:07:36;3.03;;;2.27;;
46308;SDS011;32037;50.820;6.494;2023-06-01T00:10:05;2.73;;;2.53;;
46308;SDS011;32037;50.820;6.494;2023-06-01T00:12:34;2.70;;;2.30;;
46308;SDS011;32037;50.820;6.494;2023-06-01T00:15:02;3.77;;;2.70;;
46308;SDS011;32037;50.820;6.494;2023-06-01T00:17:31;2.93;;;2.60;;
46308;SDS011;32037;50.820;6.494;2023-06-01T00:20:02;3.13;;;2.83;;
46308;SDS011;32037;50.820;6.494;2023-06-01T00:22:34;2.63;;;2.37;;
46308;SDS011;32037;50.820;6.494;2023-06-01T00:25:05;3.03;;;2.50;;
46308;SDS011;32037;50.820;6.494;2023-06-01T00:27:34;2.53;;;2.33;;
46308;SDS011;32037;50.820;6.494;2023-06-01T00:30:03;3.00;;;2.50;;
46308;SDS011;32037;50.820;6.494;2023-06-01T00:32:32;2.93;;;2.20;;
46308;SDS011;32037;50.820;6.494;2023-06-01T00:35:02;3.07;;;2.80;;
46308;SDS011;32037;50.820;6.494;2023-06-01T00:37:31;3.73;;;2.97;;
46308;SDS011;32037;50.820;6.494;2023-06-01T00:39:59;2.93;;;2.67;;
46308;SDS011;32037;50.820;6.494;2023-06-01T00:42:28;3.03;;;2.77;;
46308;SDS011;32037;50.820;6.494;2023-06-01T00:44:56;3.27;;;2.97;;
46308;SDS011;32037;50.820;6.494;2023-06-01T00:47:26;7.30;;;2.50;;
46308;SDS011;32037;50.820;6.494;2023-06-01T00:49:55;3.03;;;2.57;;
46308;SDS011;32037;50.820;6.494;2023-06-01T00:52:24;2.80;;;2.60;;
46308;SDS011;32037;50.820;6.494;2023-06-01T00:54:53;4.03;;;2.43;;
46308;SDS011;32037;50.820;6.494;2023-06-01T00:57:21;3.20;;;2.70;;
46308;SDS011;32037;50.820;6.494;2023-06-01T00:59:53;3.37;;;2.37;;
46308;SDS011;32037;50.820;6.494;2023-06-01T01:02:22;3.17;;;2.50;;
46308;SDS011;32037;50.820;6.494;2023-06-01T01:04:50;2.47;;;2.27;;
46308;SDS011;32037;50.820;6.494;2023-06-01T01:07:21;5.43;;;2.40;;
46308;SDS011;32037;50.820;6.494;2023-06-01T01:10:01;2.83;;;2.60;;
46308;SDS011;32037;50.820;6.494;2023-06-01T01:12:35;3.53;;;3.00;;
46308;SDS011;32037;50.820;6.494;2023-06-01T01:15:14;3.43;;;2.70;;
46308;SDS011;32037;50.820;6.494;2023-06-01T01:17:50;3.27;;;2.90;;
46308;SDS011;32037;50.820;6.494;2023-06-01T01:20:24;3.10;;;2.80;;
46308;SDS011;32037;50.820;6.494;2023-06-01T01:23:14;5.43;;;2.77;;
46308;SDS011;32037;50.820;6.494;2023-06-01T01:26:06;2.90;;;2.50;;
46308;SDS011;32037;50.820;6.494;2023-06-01T01:28:44;3.30;;;2.60;;
46308;SDS011;32037;50.820;6.494;2023-06-01T01:31:18;2.57;;;2.27;;
46308;SDS011;32037;50.820;6.494;2023-06-01T01:33:52;3.07;;;2.30;;
46308;SDS011;32037;50.820;6.494;2023-06-01T01:36:23;3.43;;;2.93;;
46308;SDS011;32037;50.820;6.494;2023-06-01T01:38:52;2.50;;;2.13;;
46308;SDS011;32037;50.820;6.494;2023-06-01T01:41:20;2.33;;;2.13;;
46308;SDS011;32037;50.820;6.494;2023-06-01T01:43:50;3.87;;;2.47;;
46308;SDS011;32037;50.820;6.494;2023-06-01T01:46:23;2.63;;;2.43;;
46308;SDS011;32037;50.820;6.494;2023-06-01T01:49:01;3.23;;;2.90;;
46308;SDS011;32037;50.820;6.494;2023-06-01T01:51:36;3.07;;;2.30;;
46308;SDS011;32037;50.820;6.494;2023-06-01T01:54:11;2.50;;;2.10;;
46308;SDS011;32037;50.820;6.494;2023-06-01T01:56:42;3.23;;;2.70;;
46308;SDS011;32037;50.820;6.494;2023-06-01T01:59:13;3.00;;;2.67;;
46308;SDS011;32037;50.820;6.494;2023-06-01T02:01:43;3.13;;;2.20;;
46308;SDS011;32037;50.820;6.494;2023-06-01T02:04:12;3.07;;;2.60;;
46308;SDS011;32037;50.820;6.494;2023-06-01T02:06:41;3.07;;;2.50;;
46308;SDS011;32037;50.820;6.494;2023-06-01T02:09:09;2.33;;;2.13;;
46308;SDS011;32037;50.820;6.494;2023-06-01T02:11:38;2.63;;;2.43;;
46308;SDS011;32037;50.820;6.494;2023-06-01T02:14:07;2.43;;;2.23;;
46308;SDS011;32037;50.820;6.494;2023-06-01T02:16:36;4.13;;;2.43;;
46308;SDS011;32037;50.820;6.494;2023-06-01T02:19:05;2.50;;;2.30;;
46308;SDS011;32037;50.820;6.494;2023-06-01T02:21:37;2.67;;;2.30;;
46308;SDS011;32037;50.820;6.494;2023-06-01T02:24:06;2.80;;;1.90;;
46308;SDS011;32037;50.820;6.494;2023-06-01T02:26:36;4.27;;;2.30;;
46308;SDS011;32037;50.820;6.494;2023-06-01T02:29:04;4.60;;;2.50;;
46308;SDS011;32037;50.820;6.494;2023-06-01T02:31:33;3.20;;;2.77;;
46308;SDS011;32037;50.820;6.494;2023-06-01T02:34:04;2.53;;;2.13;;
46308;SDS011;32037;50.820;6.494;2023-06-01T02:36:33;2.50;;;2.30;;
46308;SDS011;32037;50.820;6.494;2023-06-01T02:39:04;2.60;;;2.33;;
46308;SDS011;32037;50.820;6.494;2023-06-01T02:41:33;2.67;;;2.33;;
46308;SDS011;32037;50.820;6.494;2023-06-01T02:44:01;2.60;;;2.40;;
46308;SDS011;32037;50.820;6.494;2023-06-01T02:46:30;4.90;;;2.53;;
46308;SDS011;32037;50.820;6.494;2023-06-01T02:48:58;2.40;;;2.20;;
46308;SDS011;32037;50.820;6.494;2023-06-01T02:51:28;3.97;;;2.30;;
46308;SDS011;32037;50.820;6.494;2023-06-01T02:54:22;2.63;;;2.30;;
46308;SDS011;32037;50.820;6.494;2023-06-01T02:56:52;3.77;;;2.63;;
46308;SDS011;32037;50.820;6.494;2023-06-01T02:59:20;2.40;;;2.10;;
46308;SDS011;32037;50.820;6.494;2023-06-01T03:01:59;3.23;;;2.90;;
46308;SDS011;32037;50.820;6.494;2023-06-01T03:04:29;2.63;;;2.43;;
46308;SDS011;32037;50.820;6.494;2023-06-01T03:07:01;2.57;;;2.23;;
46308;SDS011;32037;50.820;6.494;2023-06-01T03:09:47;2.43;;;2.23;;
46308;SDS011;32037;50.820;6.494;2023-06-01T03:12:36;2.93;;;2.20;;
46308;SDS011;32037;50.820;6.494;2023-06-01T03:15:05;2.30;;;1.90;;
46308;SDS011;32037;50.820;6.494;2023-06-01T03:17:33;3.57;;;2.57;;
46308;SDS011;32037;50.820;6.494;2023-06-01T03:20:02;2.53;;;2.33;;
46308;SDS011;32037;50.820;6.494;2023-06-01T03:22:42;2.57;;;2.37;;
46308;SDS011;32037;50.820;6.494;2023-06-01T03:25:12;2.30;;;2.10;;
46308;SDS011;32037;50.820;6.494;2023-06-01T03:27:40;4.20;;;2.93;;
46308;SDS011;32037;50.820;6.494;2023-06-01T03:30:09;3.30;;;2.60;;
46308;SDS011;32037;50.820;6.494;2023-06-01T03:32:41;2.43;;;2.03;;
46308;SDS011;32037;50.820;6.494;2023-06-01T03:35:13;2.60;;;2.10;;
46308;SDS011;32037;50.820;6.494;2023-06-01T03:37:44;3.20;;;2.17;;
46308;SDS011;32037;50.820;6.494;2023-06-01T03:40:16;2.67;;;2.47;;
46308;SDS011;32037;50.820;6.494;2023-06-01T03:42:45;3.47;;;2.60;;
46308;SDS011;32037;50.820;6.494;2023-06-01T03:45:15;4.00;;;3.00;;
46308;SDS011;32037;50.820;6.494;2023-06-01T03:47:44;2.80;;;2.60;;
46308;SDS011;32037;50.820;6.494;2023-06-01T03:50:13;4.60;;;3.20;;
46308;SDS011;32037;50.820;6.494;2023-06-01T03:52:42;3.23;;;2.70;;
46308;SDS011;32037;50.820;6.494;2023-06-01T03:55:12;3.70;;;3.20;;
46308;SDS011;32037;50.820;6.494;2023-06-01T03:58:01;2.83;;;2.63;;
46308;SDS011;32037;50.820;6.494;2023-06-01T04:00:32;3.27;;;2.73;;
46308;SDS011;32037;50.820;6.494;2023-06-01T04:03:03;3.97;;;2.97;;
46308;SDS011;32037;50.820;6.494;2023-06-01T04:05:34;3.67;;;3.20;;
46308;SDS011;32037;50.820;6.494;2023-06-01T04:08:04;3.57;;;2.90;;
46308;SDS011;32037;50.820;6.494;2023-06-01T04:10:34;2.90;;;2.60;;
46308;SDS011;32037;50.820;6.494;2023-06-01T04:13:02;3.57;;;3.27;;
46308;SDS011;32037;50.820;6.494;2023-06-01T04:15:31;2.43;;;2.20;;
46308;SDS011;32037;50.820;6.494;2023-06-01T04:18:01;4.17;;;3.40;;
46308;SDS011;32037;50.820;6.494;2023-06-01T04:20:48;3.13;;;2.80;;
46308;SDS011;32037;50.820;6.494;2023-06-01T04:23:18;3.13;;;2.33;;
46308;SDS011;32037;50.820;6.494;2023-06-01T04:25:48;3.70;;;2.87;;
46308;SDS011;32037;50.820;6.494;2023-06-01T04:28:18;3.60;;;3.30;;
46308;SDS011;32037;50.820;6.494;2023-06-01T04:30:47;3.53;;;2.70;;
46308;SDS011;32037;50.820;6.494;2023-06-01T04:33:18;3.57;;;2.80;;
46308;SDS011;32037;50.820;6.494;2023-06-01T04:35:46;3.23;;;2.93;;
46308;SDS011;32037;50.820;6.494;2023-06-01T04:38:16;3.33;;;3.00;;
46308;SDS011;32037;50.820;6.494;2023-06-01T04:40:47;3.60;;;3.30;;
46308;SDS011;32037;50.820;6.494;2023-06-01T04:43:16;2.67;;;2.47;;
46308;SDS011;32037;50.820;6.494;2023-06-01T04:45:45;3.60;;;3.30;;
46308;SDS011;32037;50.820;6.494;2023-06-01T04:48:14;4.40;;;2.90;;
46308;SDS011;32037;50.820;6.494;2023-06-01T04:50:51;3.30;;;2.67;;
46308;SDS011;32037;50.820;6.494;2023-06-01T04:53:20;2.90;;;2.57;;
46308;SDS011;32037;50.820;6.494;2023-06-01T04:55:50;3.77;;;2.30;;
46308;SDS011;32037;50.820;6.494;2023-06-01T04:58:18;3.63;;;3.30;;
46308;SDS011;32037;50.820;6.494;2023-06-01T05:00:47;2.80;;;2.30;;
46308;SDS011;32037;50.820;6.494;2023-06-01T05:03:15;3.67;;;3.37;;
46308;SDS011;32037;50.820;6.494;2023-06-01T05:05:44;3.60;;;3.30;;
46308;SDS011;32037;50.820;6.494;2023-06-01T05:08:13;3.37;;;3.07;;
46308;SDS011;32037;50.820;6.494;2023-06-01T05:10:41;3.60;;;3.13;;
46308;SDS011;32037;50.820;6.494;2023-06-01T05:13:12;2.47;;;2.27;;
46308;SDS011;32037;50.820;6.494;2023-06-01T05:15:40;3.50;;;3.20;;
46308;SDS011;32037;50.820;6.494;2023-06-01T05:18:09;4.00;;;3.67;;
46308;SDS011;32037;50.820;6.494;2023-06-01T05:20:37;3.10;;;2.80;;
46308;SDS011;32037;50.820;6.494;2023-06-01T05:23:07;3.13;;;2.83;;
46308;SDS011;32037;50.820;6.494;2023-06-01T05:25:35;4.77;;;3.03;;
46308;SDS011;32037;50.820;6.494;2023-06-01T05:28:04;4.90;;;3.90;;
46308;SDS011;32037;50.820;6.494;2023-06-01T05:30:35;4.70;;;3.73;;
46308;SDS011;32037;50.820;6.494;2023-06-01T05:33:03;3.27;;;2.97;;
46308;SDS011;32037;50.820;6.494;2023-06-01T05:35:32;5.17;;;4.30;;
46308;SDS011;32037;50.820;6.494;2023-06-01T05:38:06;3.50;;;3.20;;
46308;SDS011;32037;50.820;6.494;2023-06-01T05:40:34;4.50;;;3.23;;
46308;SDS011;32037;50.820;6.494;2023-06-01T05:43:04;2.67;;;2.47;;
46308;SDS011;32037;50.820;6.494;2023-06-01T05:45:35;8.90;;;5.37;;
46308;SDS011;32037;50.820;6.494;2023-06-01T05:48:04;4.60;;;4.10;;
46308;SDS011;32037;50.820;6.494;2023-06-01T05:50:33;4.43;;;4.00;;
46308;SDS011;32037;50.820;6.494;2023-06-01T05:53:02;6.80;;;5.50;;
46308;SDS011;32037;50.820;6.494;2023-06-01T05:55:30;6.60;;;5.70;;
46308;SDS011;32037;50.820;6.494;2023-06-01T05:57:59;6.87;;;5.63;;
46308;SDS011;32037;50.820;6.494;2023-06-01T06:00:27;6.70;;;6.00;;
46308;SDS011;32037;50.820;6.494;2023-06-01T06:02:58;6.33;;;5.63;;
46308;SDS011;32037;50.820;6.494;2023-06-01T06:05:27;8.90;;;6.77;;
46308;SDS011;32037;50.820;6.494;2023-06-01T06:07:55;5.57;;;5.07;;
46308;SDS011;32037;50.820;6.494;2023-06-01T06:10:24;7.00;;;6.30;;
46308;SDS011;32037;50.820;6.494;2023-06-01T06:12:52;4.90;;;4.40;;
46308;SDS011;32037;50.820;6.494;2023-06-01T06:15:22;5.47;;;4.70;;
46308;SDS011;32037;50.820;6.494;2023-06-01T06:17:50;6.17;;;5.57;;
46308;SDS011;32037;50.820;6.494;2023-06-01T06:20:20;5.37;;;4.83;;
46308;SDS011;32037;50.820;6.494;2023-06-01T06:22:49;4.90;;;4.50;;
46308;SDS011;32037;50.820;6.494;2023-06-01T06:25:18;5.33;;;4.83;;
46308;SDS011;32037;50.820;6.494;2023-06-01T06:27:47;8.30;;;7.50;;
46308;SDS011;32037;50.820;6.494;2023-06-01T06:30:16;9.90;;;7.97;;
46308;SDS011;32037;50.820;6.494;2023-06-01T06:32:44;9.83;;;8.10;;
46308;SDS011;32037;50.820;6.494;2023-06-01T06:35:13;6.67;;;6.07;;
46308;SDS011;32037;50.820;6.494;2023-06-01T06:37:42;8.40;;;6.23;;
46308;SDS011;32037;50.820;6.494;2023-06-01T06:40:11;8.00;;;6.90;;
46308;SDS011;32037;50.820;6.494;2023-06-01T06:42:40;10.10;;;7.20;;
46308;SDS011;32037;50.820;6.494;2023-06-01T06:45:09;6.33;;;5.73;;
46308;SDS011;32037;50.820;6.494;2023-06-01T06:47:38;9.10;;;8.20;;
46308;SDS011;32037;50.820;6.494;2023-06-01T06:50:09;6.10;;;5.50;;
46308;SDS011;32037;50.820;6.494;2023-06-01T06:52:38;6.27;;;5.70;;
46308;SDS011;32037;50.820;6.494;2023-06-01T06:55:08;6.17;;;5.57;;
46308;SDS011;32037;50.820;6.494;2023-06-01T06:57:37;5.80;;;5.20;;
46308;SDS011;32037;50.820;6.494;2023-06-01T07:00:07;6.57;;;5.20;;
46308;SDS011;32037;50.820;6.494;2023-06-01T07:02:41;5.57;;;5.07;;
46308;SDS011;32037;50.820;6.494;2023-06-01T07:05:11;6.23;;;5.63;;
46308;SDS011;32037;50.820;6.494;2023-06-01T07:07:40;6.07;;;5.47;;
46308;SDS011;32037;50.820;6.494;2023-06-01T07:10:10;5.60;;;5.10;;
46308;SDS011;32037;50.820;6.494;2023-06-01T07:12:39;6.63;;;6.03;;
46308;SDS011;32037;50.820;6.494;2023-06-01T07:15:08;8.20;;;7.03;;
46308;SDS011;32037;50.820;6.494;2023-06-01T07:17:37;7.77;;;6.97;;
46308;SDS011;32037;50.820;6.494;2023-06-01T07:20:06;11.00;;;9.20;;
46308;SDS011;32037;50.820;6.494;2023-06-01T07:22:37;9.37;;;8.47;;
46308;SDS011;32037;50.820;6.494;2023-06-01T07:25:08;8.03;;;7.23;;
46308;SDS011;32037;50.820;6.494;2023-06-01T07:27:39;8.40;;;7.27;;
46308;SDS011;32037;50.820;6.494;2023-06-01T07:30:10;7.40;;;6.70;;
46308;SDS011;32037;50.820;6.494;2023-06-01T07:32:39;7.60;;;6.90;;
46308;SDS011;32037;50.820;6.494;2023-06-01T07:35:08;12.60;;;10.00;;
46308;SDS011;32037;50.820;6.494;2023-06-01T07:37:37;7.70;;;7.00;;
46308;SDS011;32037;50.820;6.494;2023-06-01T07:40:06;12.53;;;10.40;;
46308;SDS011;32037;50.820;6.494;2023-06-01T07:42:36;10.90;;;9.20;;
46308;SDS011;32037;50.820;6.494;2023-06-01T07:45:05;13.23;;;10.30;;
46308;SDS011;32037;50.820;6.494;2023-06-01T07:47:36;10.83;;;8.90;;
46308;SDS011;32037;50.820;6.494;2023-06-01T07:50:06;12.57;;;10.60;;
46308;SDS011;32037;50.820;6.494;2023-06-01T07:52:36;12.23;;;10.03;;
46308;SDS011;32037;50.820;6.494;2023-06-01T07:55:05;13.03;;;11.47;;
46308;SDS011;32037;50.820;6.494;2023-06-01T07:57:36;13.80;;;11.23;;
46308;SDS011;32037;50.820;6.494;2023-06-01T08:00:07;10.43;;;9.30;;
46308;SDS011;32037;50.820;6.494;2023-06-01T08:02:38;11.77;;;9.77;;
46308;SDS011;32037;50.820;6.494;2023-06-01T08:05:08;11.50;;;10.30;;
46308;SDS011;32037;50.820;6.494;2023-06-01T08:07:38;12.63;;;11.03;;
46308;SDS011;32037;50.820;6.494;2023-06-01T08:10:07;10.70;;;9.23;;
46308;SDS011;32037;50.820;6.494;2023-06-01T08:12:37;14.50;;;12.23;;
46308;SDS011;32037;50.820;6.494;2023-06-01T08:15:06;12.47;;;10.70;;
46308;SDS011;32037;50.820;6.494;2023-06-01T08:17:34;17.00;;;13.33;;
46308;SDS011;32037;50.820;6.494;2023-06-01T08:20:04;16.00;;;12.37;;
46308;SDS011;32037;50.820;6.494;2023-06-01T08:22:37;16.73;;;14.00;;
46308;SDS011;32037;50.820;6.494;2023-06-01T08:25:08;13.30;;;11.90;;
46308;SDS011;32037;50.820;6.494;2023-06-01T08:27:38;15.23;;;12.27;;
46308;SDS011;32037;50.820;6.494;2023-06-01T08:30:07;14.50;;;13.00;;
46308;SDS011;32037;50.820;6.494;2023-06-01T08:32:36;17.20;;;15.20;;
46308;SDS011;32037;50.820;6.494;2023-06-01T08:35:05;14.80;;;11.77;;
46308;SDS011;32037;50.820;6.494;2023-06-01T08:37:35;14.17;;;12.70;;
46308;SDS011;32037;50.820;6.494;2023-06-01T08:40:04;17.63;;;15.73;;
46308;SDS011;32037;50.820;6.494;2023-06-01T08:42:42;17.03;;;14.93;;
46308;SDS011;32037;50.820;6.494;2023-06-01T08:45:14;16.80;;;14.30;;
46308;SDS011;32037;50.820;6.494;2023-06-01T08:47:43;13.27;;;11.83;;
46308;SDS011;32037;50.820;6.494;2023-06-01T08:50:13;17.50;;;14.83;;
46308;SDS011;32037;50.820;6.494;2023-06-01T08:52:43;14.67;;;13.17;;
46308;SDS011;32037;50.820;6.494;2023-06-01T08:55:13;13.17;;;11.53;;
46308;SDS011;32037;50.820;6.494;2023-06-01T08:57:43;18.37;;;13.00;;
46308;SDS011;32037;50.820;6.494;2023-06-01T09:00:12;13.50;;;12.20;;
46308;SDS011;32037;50.820;6.494;2023-06-01T09:02:42;13.87;;;12.03;;
46308;SDS011;32037;50.820;6.494;2023-06-01T09:05:11;15.97;;;14.23;;
46308;SDS011;32037;50.820;6.494;2023-06-01T09:07:39;16.73;;;13.57;;
46308;SDS011;32037;50.820;6.494;2023-06-01T09:10:08;19.07;;;14.80;;
46308;SDS011;32037;50.820;6.494;2023-06-01T09:15:37;16.53;;;13.60;;
46308;SDS011;32037;50.820;6.494;2023-06-01T09:18:18;19.50;;;17.07;;
46308;SDS011;32037;50.820;6.494;2023-06-01T09:20:46;15.00;;;13.50;;
46308;SDS011;32037;50.820;6.494;2023-06-01T09:23:22;17.60;;;15.83;;
46308;SDS011;32037;50.820;6.494;2023-06-01T09:26:03;17.77;;;15.87;;
46308;SDS011;32037;50.820;6.494;2023-06-01T09:31:38;14.47;;;12.37;;
46308;SDS011;32037;50.820;6.494;2023-06-01T09:34:08;14.53;;;13.07;;
46308;SDS011;32037;50.820;6.494;2023-06-01T09:36:37;14.27;;;12.87;;
46308;SDS011;32037;50.820;6.494;2023-06-01T09:39:06;13.80;;;12.40;;
46308;SDS011;32037;50.820;6.494;2023-06-01T09:41:49;18.50;;;14.93;;
46308;SDS011;32037;50.820;6.494;2023-06-01T09:44:22;15.47;;;13.80;;
46308;SDS011;32037;50.820;6.494;2023-06-01T09:46:54;33.03;;;27.57;;
46308;SDS011;32037;50.820;6.494;2023-06-01T09:49:24;30.97;;;26.10;;
46308;SDS011;32037;50.820;6.494;2023-06-01T09:52:07;37.10;;;32.90;;
46308;SDS011;32037;50.820;6.494;2023-06-01T09:54:40;35.23;;;30.30;;
46308;SDS011;32037;50.820;6.494;2023-06-01T09:57:09;33.93;;;28.50;;
46308;SDS011;32037;50.820;6.494;2023-06-01T09:59:40;29.33;;;26.33;;
46308;SDS011;32037;50.820;6.494;2023-06-01T10:02:15;29.53;;;26.00;;
46308;SDS011;32037;50.820;6.494;2023-06-01T10:04:45;27.07;;;24.23;;
46308;SDS011;32037;50.820;6.494;2023-06-01T10:07:16;27.33;;;24.43;;
46308;SDS011;32037;50.820;6.494;2023-06-01T10:09:47;26.17;;;23.37;;
46308;SDS011;32037;50.820;6.494;2023-06-01T10:12:17;27.97;;;24.37;;
46308;SDS011;32037;50.820;6.494;2023-06-01T10:14:46;25.60;;;23.07;;
46308;SDS011;32037;50.820;6.494;2023-06-01T10:17:17;26.00;;;23.43;;
46308;SDS011;32037;50.820;6.494;2023-06-01T10:19:47;26.27;;;23.43;;
46308;SDS011;32037;50.820;6.494;2023-06-01T10:22:17;25.83;;;22.93;;
46308;SDS011;32037;50.820;6.494;2023-06-01T10:24:45;24.90;;;22.43;;
46308;SDS011;32037;50.820;6.494;2023-06-01T10:27:16;23.67;;;21.10;;
46308;SDS011;32037;50.820;6.494;2023-06-01T10:29:47;24.60;;;22.20;;
46308;SDS011;32037;50.820;6.494;2023-06-01T10:38:31;23.17;;;21.00;;
46308;SDS011;32037;50.820;6.494;2023-06-01T10:43:57;23.90;;;21.27;;
46308;SDS011;32037;50.820;6.494;2023-06-01T10:46:42;22.37;;;20.00;;
46308;SDS011;32037;50.820;6.494;2023-06-01T10:49:13;23.23;;;21.03;;
46308;SDS011;32037;50.820;6.494;2023-06-01T10:51:41;23.10;;;20.13;;
46308;SDS011;32037;50.820;6.494;2023-06-01T10:57:23;19.90;;;17.80;;
46308;SDS011;32037;50.820;6.494;2023-06-01T11:00:08;22.07;;;19.80;;
46308;SDS011;32037;50.820;6.494;2023-06-01T11:02:49;22.20;;;18.77;;
46308;SDS011;32037;50.820;6.494;2023-06-01T11:05:40;22.60;;;20.10;;
46308;SDS011;32037;50.820;6.494;2023-06-01T11:14:29;21.77;;;19.57;;
46308;SDS011;32037;50.820;6.494;2023-06-01T11:19:59;20.27;;;18.27;;
46308;SDS011;32037;50.820;6.494;2023-06-01T11:22:39;19.87;;;17.83;;
46308;SDS011;32037;50.820;6.494;2023-06-01T11:25:08;19.23;;;17.43;;
46308;SDS011;32037;50.820;6.494;2023-06-01T11:27:44;21.53;;;19.23;;
46308;SDS011;32037;50.820;6.494;2023-06-01T11:30:18;19.47;;;17.50;;
46308;SDS011;32037;50.820;6.494;2023-06-01T11:32:48;20.20;;;17.00;;
46308;SDS011;32037;50.820;6.494;2023-06-01T11:35:23;18.50;;;16.70;;
46308;SDS011;32037;50.820;6.494;2023-06-01T11:37:57;19.93;;;18.03;;
46308;SDS011;32037;50.820;6.494;2023-06-01T11:40:26;20.27;;;18.27;;
46308;SDS011;32037;50.820;6.494;2023-06-01T11:43:00;19.67;;;17.80;;
46308;SDS011;32037;50.820;6.494;2023-06-01T11:45:29;19.10;;;17.17;;
46308;SDS011;32037;50.820;6.494;2023-06-01T11:47:57;18.97;;;17.00;;
46308;SDS011;32037;50.820;6.494;2023-06-01T11:50:37;19.67;;;17.60;;
46308;SDS011;32037;50.820;6.494;2023-06-01T11:53:15;18.03;;;16.23;;
46308;SDS011;32037;50.820;6.494;2023-06-01T11:55:50;19.10;;;17.10;;
46308;SDS011;32037;50.820;6.494;2023-06-01T11:58:22;17.47;;;15.63;;
46308;SDS011;32037;50.820;6.494;2023-06-01T12:00:51;17.57;;;15.93;;
46308;SDS011;32037;50.820;6.494;2023-06-01T12:03:20;18.33;;;16.33;;
46308;SDS011;32037;50.820;6.494;2023-06-01T12:05:53;17.33;;;15.57;;
46308;SDS011;32037;50.820;6.494;2023-06-01T12:08:24;18.13;;;16.47;;
46308;SDS011;32037;50.820;6.494;2023-06-01T12:10:55;19.13;;;17.13;;
46308;SDS011;32037;50.820;6.494;2023-06-01T12:13:23;16.27;;;14.73;;
46308;SDS011;32037;50.820;6.494;2023-06-01T12:15:52;17.53;;;15.80;;
46308;SDS011;32037;50.820;6.494;2023-06-01T12:18:28;18.23;;;16.43;;
46308;SDS011;32037;50.820;6.494;2023-06-01T12:20:58;17.87;;;16.03;;
46308;SDS011;32037;50.820;6.494;2023-06-01T12:23:28;16.47;;;14.87;;
46308;SDS011;32037;50.820;6.494;2023-06-01T12:25:57;15.23;;;13.83;;
46308;SDS011;32037;50.820;6.494;2023-06-01T12:28:26;15.50;;;14.10;;
46308;SDS011;32037;50.820;6.494;2023-06-01T12:33:47;17.57;;;15.87;;
46308;SDS011;32037;50.820;6.494;2023-06-01T12:39:03;17.30;;;15.70;;
46308;SDS011;32037;50.820;6.494;2023-06-01T12:41:32;14.97;;;13.57;;
46308;SDS011;32037;50.820;6.494;2023-06-01T12:44:01;16.60;;;15.00;;
46308;SDS011;32037;50.820;6.494;2023-06-01T12:46:30;16.00;;;14.50;;
46308;SDS011;32037;50.820;6.494;2023-06-01T12:49:11;16.40;;;14.90;;
46308;SDS011;32037;50.820;6.494;2023-06-01T12:51:41;15.73;;;14.13;;
46308;SDS011;32037;50.820;6.494;2023-06-01T12:54:10;15.03;;;13.73;;
46308;SDS011;32037;50.820;6.494;2023-06-01T12:56:39;16.20;;;14.70;;
46308;SDS011;32037;50.820;6.494;2023-06-01T12:59:08;16.80;;;15.20;;
46308;SDS011;32037;50.820;6.494;2023-06-01T13:01:36;15.47;;;13.93;;
46308;SDS011;32037;50.820;6.494;2023-06-01T13:04:06;15.47;;;13.93;;
46308;SDS011;32037;50.820;6.494;2023-06-01T13:06:35;14.90;;;13.50;;
46308;SDS011;32037;50.820;6.494;2023-06-01T13:09:04;15.60;;;14.20;;
46308;SDS011;32037;50.820;6.494;2023-06-01T13:11:35;14.53;;;12.97;;
46308;SDS011;32037;50.820;6.494;2023-06-01T13:14:04;13.87;;;12.53;;
46308;SDS011;32037;50.820;6.494;2023-06-01T13:16:32;14.00;;;12.47;;
46308;SDS011;32037;50.820;6.494;2023-06-01T13:19:01;15.63;;;13.97;;
46308;SDS011;32037;50.820;6.494;2023-06-01T13:21:30;15.20;;;13.77;;
46308;SDS011;32037;50.820;6.494;2023-06-01T13:24:00;14.73;;;13.30;;
46308;SDS011;32037;50.820;6.494;2023-06-01T13:26:29;13.63;;;12.40;;
46308;SDS011;32037;50.820;6.494;2023-06-01T13:29:00;14.63;;;12.33;;
46308;SDS011;32037;50.820;6.494;2023-06-01T13:31:29;13.70;;;12.40;;
46308;SDS011;32037;50.820;6.494;2023-06-01T13:33:59;14.20;;;12.90;;
46308;SDS011;32037;50.820;6.494;2023-06-01T13:36:28;13.13;;;11.90;;
46308;SDS011;32037;50.820;6.494;2023-06-01T13:38:57;13.00;;;11.80;;
46308;SDS011;32037;50.820;6.494;2023-06-01T13:41:25;15.33;;;13.87;;
46308;SDS011;32037;50.820;6.494;2023-06-01T13:43:54;13.47;;;12.17;;
46308;SDS011;32037;50.820;6.494;2023-06-01T13:46:24;13.57;;;12.30;;
46308;SDS011;32037;50.820;6.494;2023-06-01T13:48:53;12.97;;;11.63;;
46308;SDS011;32037;50.820;6.494;2023-06-01T13:51:21;12.03;;;10.93;;
46308;SDS011;32037;50.820;6.494;2023-06-01T13:53:50;13.52;;;12.13;;
46308;SDS011;32037;50.820;6.494;2023-06-01T13:56:18;13.50;;;12.20;;
46308;SDS011;32037;50.820;6.494;2023-06-01T13:58:47;12.30;;;11.10;;
46308;SDS011;32037;50.820;6.494;2023-06-01T14:01:16;13.27;;;11.97;;
46308;SDS011;32037;50.820;6.494;2023-06-01T14:03:49;13.90;;;11.50;;
46308;SDS011;32037;50.820;6.494;2023-06-01T14:06:18;12.50;;;9.10;;
46308;SDS011;32037;50.820;6.494;2023-06-01T14:08:47;11.33;;;8.93;;
46308;SDS011;32037;50.820;6.494;2023-06-01T14:11:16;13.50;;;9.67;;
46308;SDS011;32037;50.820;6.494;2023-06-01T14:13:44;13.00;;;9.20;;
46308;SDS011;32037;50.820;6.494;2023-06-01T14:16:13;10.37;;;9.33;;
46308;SDS011;32037;50.820;6.494;2023-06-01T14:18:41;10.77;;;9.43;;
46308;SDS011;32037;50.820;6.494;2023-06-01T14:21:11;10.93;;;9.83;;
46308;SDS011;32037;50.820;6.494;2023-06-01T14:23:40;12.63;;;9.70;;
46308;SDS011;32037;50.820;6.494;2023-06-01T14:26:11;10.67;;;9.57;;
46308;SDS011;32037;50.820;6.494;2023-06-01T14:28:39;11.20;;;10.00;;
46308;SDS011;32037;50.820;6.494;2023-06-01T14:31:08;11.23;;;9.33;;
46308;SDS011;32037;50.820;6.494;2023-06-01T14:33:36;10.50;;;9.50;;
46308;SDS011;32037;50.820;6.494;2023-06-01T14:36:05;11.77;;;10.00;;
46308;SDS011;32037;50.820;6.494;2023-06-01T14:38:35;12.20;;;9.23;;
46308;SDS011;32037;50.820;6.494;2023-06-01T14:41:04;10.27;;;9.10;;
46308;SDS011;32037;50.820;6.494;2023-06-01T14:43:33;12.30;;;9.17;;
46308;SDS011;32037;50.820;6.494;2023-06-01T14:46:02;9.60;;;8.60;;
46308;SDS011;32037;50.820;6.494;2023-06-01T14:48:30;12.00;;;9.73;;
46308;SDS011;32037;50.820;6.494;2023-06-01T14:50:59;9.40;;;8.53;;
46308;SDS011;32037;50.820;6.494;2023-06-01T14:53:27;10.33;;;9.37;;
46308;SDS011;32037;50.820;6.494;2023-06-01T14:55:57;11.53;;;8.13;;
46308;SDS011;32037;50.820;6.494;2023-06-01T14:58:25;10.53;;;9.43;;
46308;SDS011;32037;50.820;6.494;2023-06-01T15:00:54;10.00;;;8.60;;
46308;SDS011;32037;50.820;6.494;2023-06-01T15:03:22;11.13;;;9.07;;
46308;SDS011;32037;50.820;6.494;2023-06-01T15:05:51;9.97;;;8.97;;
46308;SDS011;32037;50.820;6.494;2023-06-01T15:08:19;10.27;;;9.20;;
46308;SDS011;32037;50.820;6.494;2023-06-01T15:10:49;9.53;;;8.63;;
46308;SDS011;32037;50.820;6.494;2023-06-01T15:13:20;9.60;;;8.70;;
46308;SDS011;32037;50.820;6.494;2023-06-01T15:15:49;9.60;;;8.70;;
46308;SDS011;32037;50.820;6.494;2023-06-01T15:18:17;10.13;;;8.00;;
46308;SDS011;32037;50.820;6.494;2023-06-01T15:20:47;9.60;;;8.60;;
46308;SDS011;32037;50.820;6.494;2023-06-01T15:23:18;9.83;;;8.93;;
46308;SDS011;32037;50.820;6.494;2023-06-01T15:25:46;9.07;;;8.20;;
46308;SDS011;32037;50.820;6.494;2023-06-01T15:28:15;8.03;;;7.33;;